Observations for RAPID CITY REGIONAL, SD (RAP)

KRAP 202252Z 34016KT 10SM CLR 13/M06 A2966 RMK AO2 PK WND 34026/2159 SLP054 T01331056   
KRAP 202152Z 34019G26KT 10SM CLR 16/M07 A2964 RMK AO2 PK WND 34027/2133 SLP020 T01611067 $  
KRAP 202052Z 34021G27KT 10SM CLR 18/M08 A2963 RMK AO2 PK WND 33027/2039 SLP016 6//// T01831078 $
KRAP 201952Z 30015KT 10SM CLR 19/M12 A2962 RMK AO2 SLP012 T01891122 PNO $   
KRAP 201852Z 34016G24KT 10SM CLR 18/M09 A2959 RMK AO2 SLP024 T01831094  
KRAP 201752Z VRB03KT 10SM CLR 17/M11 A2960 RMK AO2 SLP026 T01671111 10167 20006 50006   
KRAP 201652Z 27006KT 10SM CLR 16/M12 A2960 RMK AO2 SLP027 T01611117 
KRAP 201552Z 29011KT 10SM CLR 13/M08 A2959 RMK AO2 SLP027 T01331083 
KRAP 201452Z 00000KT 10SM CLR 03/M07 A2957 RMK AO2 SLP031 T00281067 55002   
KRAP 201352Z 00000KT 10SM CLR 02/M09 A2957 RMK AO2 SLP034 T00171094 
KRAP 201252Z AUTO 00000KT 10SM CLR 01/M09 A2958 RMK AO2 SLP037 T00111089
KRAP 201152Z AUTO 00000KT 10SM CLR 02/M09 A2958 RMK AO2 SLP032 T00171094 10028 21033 56019  
KRAP 201052Z AUTO 19003KT 10SM CLR 00/M09 A2960 RMK AO2 SLP037 T00001089
KRAP 200952Z AUTO 00000KT 10SM CLR 02/M09 A2962 RMK AO2 SLP040 T00171094
KRAP 200852Z AUTO 00000KT 10SM CLR 00/M09 A2964 RMK AO2 SLP048 T00001089 56014  
KRAP 200752Z AUTO 00000KT 10SM CLR M02/M09 A2965 RMK AO2 SLP054 T10171089   
KRAP 200652Z AUTO 00000KT 10SM CLR M03/M09 A2967 RMK AO2 SLP064 T10331094 401281083 
KRAP 200552Z AUTO 00000KT 10SM CLR M01/M09 A2969 RMK AO2 SLP069 T10061089 10061 21017 58014 
KRAP 200452Z 10003KT 10SM CLR M01/M09 A2971 RMK AO2 SLP080 T10061089
KRAP 200352Z 27004KT 10SM CLR 01/M08 A2971 RMK AO2 SLP083 T00111083 
KRAP 200252Z 30005KT 10SM CLR 03/M07 A2973 RMK AO2 SLP094 T00331072 58010   
KRAP 200152Z 27004KT 10SM CLR 02/M08 A2974 RMK AO2 SLP107 T00171078 
KRAP 200052Z 35003KT 10SM CLR 02/M08 A2976 RMK AO2 SLP109 T00221078 
KRAP 192352Z 10003KT 10SM CLR 06/M08 A2976 RMK AO2 SLP105 T00611078 10128 20061 56021   
KRAP 192252Z 10005KT 10SM CLR 09/M07 A2978 RMK AO2 SLP109 T00891067 
KRAP 192152Z 15008KT 10SM CLR 12/M08 A2980 RMK AO2 SLP110 T01171078